createdAt,value
2023-02-22T00:01:28.312Z,10.74
2023-02-22T00:03:54.909Z,10.85
2023-02-22T00:06:25.181Z,10.88
2023-02-22T00:08:52.570Z,10.82
2023-02-22T00:11:20.680Z,10.85
2023-02-22T00:13:50.392Z,10.91
2023-02-22T00:16:21.826Z,10.89
2023-02-22T00:18:49.603Z,10.79
2023-02-22T00:21:17.389Z,10.93
2023-02-22T00:23:46.641Z,10.93
2023-02-22T00:26:18.426Z,10.99
2023-02-22T00:28:50.711Z,10.99
2023-02-22T00:31:18.895Z,11.01
2023-02-22T00:33:45.776Z,10.89
2023-02-22T00:36:13.469Z,10.94
2023-02-22T00:38:41.554Z,10.90
2023-02-22T00:41:08.741Z,10.96
2023-02-22T00:43:35.548Z,10.96
2023-02-22T00:46:02.716Z,11.01
2023-02-22T00:48:29.489Z,11.03
2023-02-22T00:50:56.390Z,10.99
2023-02-22T00:53:24.723Z,11.04
2023-02-22T00:55:51.772Z,10.97
2023-02-22T00:58:18.742Z,11.01
2023-02-22T01:00:45.697Z,11.05
2023-02-22T01:03:15.069Z,11.04
2023-02-22T01:05:42.740Z,11.04
2023-02-22T01:08:13.040Z,11.06
2023-02-22T01:10:40.054Z,11.06
2023-02-22T01:13:12.585Z,11.07
2023-02-22T01:15:41.884Z,11.07
2023-02-22T01:18:09.452Z,10.98
2023-02-22T01:20:36.882Z,11.07
2023-02-22T01:23:07.295Z,11.03
2023-02-22T01:25:34.960Z,10.91
2023-02-22T01:28:02.852Z,11.02
2023-02-22T01:30:33.097Z,11.06
2023-02-22T01:33:01.847Z,11.07
2023-02-22T01:35:32.831Z,11.07
2023-02-22T01:37:59.773Z,10.99
2023-02-22T01:40:33.211Z,11.05
2023-02-22T01:43:03.549Z,11.05
2023-02-22T01:45:30.147Z,11.06
2023-02-22T01:48:03.881Z,11.04
2023-02-22T01:50:35.141Z,10.96
2023-02-22T01:53:03.172Z,10.99
2023-02-22T01:55:30.929Z,10.96
2023-02-22T01:57:57.955Z,10.97
2023-02-22T02:00:27.707Z,11.01
2023-02-22T02:03:00.077Z,11.07
2023-02-22T02:05:31.374Z,10.96
2023-02-22T02:08:03.480Z,11.03
2023-02-22T02:10:31.545Z,10.95
2023-02-22T02:12:58.813Z,10.96
2023-02-22T02:15:29.397Z,10.96
2023-02-22T02:18:00.804Z,10.94
2023-02-22T02:20:38.552Z,10.87
2023-02-22T02:23:29.619Z,10.96
2023-02-22T02:26:32.424Z,10.93
2023-02-22T02:29:14.310Z,10.95
2023-02-22T02:31:59.531Z,10.97
2023-02-22T02:34:37.705Z,10.99
2023-02-22T02:37:18.127Z,10.92
2023-02-22T02:39:59.255Z,10.98
2023-02-22T02:42:35.458Z,10.98
2023-02-22T02:45:11.810Z,10.91
2023-02-22T02:47:44.681Z,10.98
2023-02-22T02:50:22.415Z,10.90
2023-02-22T02:52:50.959Z,10.88
2023-02-22T02:55:18.768Z,10.85
2023-02-22T02:57:45.420Z,10.88
2023-02-22T03:00:24.440Z,10.86
2023-02-22T03:03:25.034Z,10.95
2023-02-22T03:06:10.250Z,10.97
2023-02-22T03:09:04.040Z,10.99
2023-02-22T03:12:02.270Z,10.97
2023-02-22T03:15:00.364Z,10.96
2023-02-22T03:17:45.534Z,10.96
2023-02-22T03:20:31.899Z,10.96
2023-02-22T03:23:12.669Z,10.95
2023-02-22T03:25:51.886Z,10.86
2023-02-22T03:28:21.620Z,10.93
2023-02-22T03:30:57.561Z,10.85
2023-02-22T03:33:33.977Z,10.93
2023-02-22T03:36:25.054Z,10.91
2023-02-22T03:38:56.959Z,10.91
2023-02-22T03:41:25.846Z,10.90
2023-02-22T03:43:56.617Z,10.89
2023-02-22T03:46:23.822Z,10.87
2023-02-22T03:49:04.740Z,10.91
2023-02-22T03:51:31.504Z,10.81
2023-02-22T03:53:58.189Z,10.85
2023-02-22T03:56:37.251Z,10.86
2023-02-22T03:59:10.076Z,10.78
2023-02-22T04:01:36.940Z,10.75
2023-02-22T04:04:03.893Z,10.74
2023-02-22T04:06:30.582Z,10.69
2023-02-22T04:08:57.286Z,10.64
2023-02-22T04:11:23.870Z,10.68
2023-02-22T04:13:50.622Z,10.61
2023-02-22T04:16:17.292Z,10.64
2023-02-22T04:18:44.001Z,10.65
2023-02-22T04:21:10.668Z,10.61
2023-02-22T04:23:37.352Z,10.58
2023-02-22T04:26:04.038Z,10.54
2023-02-22T04:28:30.747Z,10.51
2023-02-22T04:30:57.407Z,10.52
2023-02-22T04:33:24.169Z,10.56
2023-02-22T04:35:51.590Z,10.57
2023-02-22T04:38:18.557Z,10.52
2023-02-22T04:40:46.234Z,10.58
2023-02-22T04:43:12.879Z,10.54
2023-02-22T04:45:39.540Z,10.50
2023-02-22T04:48:06.193Z,10.45
2023-02-22T04:50:32.777Z,10.48
2023-02-22T04:52:59.449Z,10.45
2023-02-22T04:55:26.109Z,10.44
2023-02-22T04:57:52.677Z,10.38
2023-02-22T05:00:21.803Z,10.37
2023-02-22T05:02:49.625Z,10.46
2023-02-22T05:05:18.613Z,10.45
2023-02-22T05:07:45.227Z,10.50
2023-02-22T05:10:11.864Z,10.44
2023-02-22T05:12:38.445Z,10.43
2023-02-22T05:15:06.786Z,10.42
2023-02-22T05:17:34.010Z,10.45
2023-02-22T05:20:00.660Z,10.39
2023-02-22T05:22:27.372Z,10.46
2023-02-22T05:24:54.054Z,10.45
2023-02-22T05:27:20.793Z,10.50
2023-02-22T05:29:47.403Z,10.43
2023-02-22T05:32:14.380Z,10.46
2023-02-22T05:34:41.186Z,10.51
2023-02-22T05:37:07.847Z,10.42
2023-02-22T05:39:34.550Z,10.46
2023-02-22T05:42:01.267Z,10.36
2023-02-22T05:44:28.221Z,10.40
2023-02-22T05:46:54.817Z,10.43
2023-02-22T05:49:21.448Z,10.33
2023-02-22T05:51:48.069Z,10.45
2023-02-22T05:54:14.684Z,10.35
2023-02-22T05:56:41.355Z,10.40
2023-02-22T05:59:07.929Z,10.45
2023-02-22T06:01:34.520Z,10.41
2023-02-22T06:04:01.222Z,10.43
2023-02-22T06:06:27.857Z,10.46
2023-02-22T06:08:54.501Z,10.46
2023-02-22T06:11:21.141Z,10.40
2023-02-22T06:13:52.478Z,10.44
2023-02-22T06:16:21.520Z,10.43
2023-02-22T06:18:48.829Z,10.47
2023-02-22T06:21:15.950Z,10.45
2023-02-22T06:23:42.716Z,10.38
2023-02-22T06:26:10.484Z,10.37
2023-02-22T06:28:37.140Z,10.32
2023-02-22T06:31:04.053Z,10.45
2023-02-22T06:33:31.104Z,10.39
2023-02-22T06:35:57.828Z,10.48
2023-02-22T06:38:27.992Z,10.44
2023-02-22T06:40:58.089Z,10.45
2023-02-22T06:43:25.900Z,10.45
2023-02-22T06:45:53.155Z,10.45
2023-02-22T06:48:19.889Z,10.51
2023-02-22T06:50:46.619Z,10.45
2023-02-22T06:53:13.242Z,10.59
2023-02-22T06:55:39.800Z,10.64
2023-02-22T06:58:06.461Z,10.66
2023-02-22T07:00:33.881Z,10.75
2023-02-22T07:03:01.167Z,10.63
2023-02-22T07:05:28.778Z,10.69
2023-02-22T07:08:02.550Z,10.67
2023-02-22T07:10:31.396Z,10.69
2023-02-22T07:12:58.327Z,10.65
2023-02-22T07:15:27.952Z,10.72
2023-02-22T07:17:54.648Z,10.66
2023-02-22T07:20:23.002Z,10.69
2023-02-22T07:22:50.356Z,10.77
2023-02-22T07:25:17.535Z,10.86
2023-02-22T07:27:44.439Z,10.99
2023-02-22T07:30:20.660Z,11.13
2023-02-22T07:32:47.553Z,11.16
2023-02-22T07:35:23.173Z,11.28
2023-02-22T07:37:49.921Z,11.39
2023-02-22T07:40:18.052Z,11.51
2023-02-22T07:43:14.293Z,11.58
2023-02-22T07:45:41.269Z,11.68
2023-02-22T07:48:09.226Z,11.72
2023-02-22T07:50:36.318Z,11.78
2023-02-22T07:53:06.141Z,11.88
2023-02-22T07:55:34.176Z,12.00
2023-02-22T07:58:03.879Z,12.13
2023-02-22T08:00:39.323Z,12.28
2023-02-22T08:03:08.905Z,12.33
2023-02-22T08:05:37.095Z,12.49
2023-02-22T08:08:06.187Z,12.59
2023-02-22T08:10:35.057Z,12.61
2023-02-22T08:13:02.130Z,12.62
2023-02-22T08:15:31.718Z,12.64
2023-02-22T08:18:00.259Z,12.71
2023-02-22T08:20:31.510Z,12.70
2023-02-22T08:22:59.419Z,12.68
2023-02-22T08:25:31.226Z,12.76
2023-02-22T08:28:01.334Z,12.74
2023-02-22T08:30:31.250Z,12.75
2023-02-22T08:32:58.617Z,12.64
2023-02-22T08:35:27.475Z,12.72
2023-02-22T08:37:55.245Z,12.70
2023-02-22T08:40:24.817Z,12.73
2023-02-22T08:42:52.086Z,12.64
2023-02-22T08:45:18.960Z,12.75
2023-02-22T08:47:45.960Z,12.79
2023-02-22T08:50:22.690Z,12.80
2023-02-22T08:53:01.723Z,12.84
2023-02-22T08:55:32.267Z,12.92
2023-02-22T08:58:03.277Z,12.98
2023-02-22T09:00:35.333Z,12.97
2023-02-22T09:03:03.525Z,13.12
2023-02-22T09:05:31.583Z,13.19
2023-02-22T09:07:58.655Z,13.28
2023-02-22T09:10:29.587Z,13.26
2023-02-22T09:12:57.001Z,12.90
2023-02-22T09:15:25.203Z,13.18
2023-02-22T09:17:52.218Z,13.30
2023-02-22T09:20:21.572Z,13.38
2023-02-22T09:22:49.484Z,13.39
2023-02-22T09:25:17.670Z,13.44
2023-02-22T09:27:48.015Z,13.63
2023-02-22T09:30:32.217Z,13.69
2023-02-22T09:33:02.351Z,13.50
2023-02-22T09:35:29.396Z,13.51
2023-02-22T09:37:57.655Z,13.65
2023-02-22T09:40:32.644Z,13.64
2023-02-22T09:43:01.986Z,13.90
2023-02-22T09:45:36.975Z,14.04
2023-02-22T09:48:20.856Z,14.32
2023-02-22T09:50:53.688Z,14.14
2023-02-22T09:53:29.750Z,14.66
2023-02-22T09:56:06.596Z,15.13
2023-02-22T09:58:43.177Z,15.50
2023-02-22T10:01:15.618Z,15.40
2023-02-22T10:03:48.164Z,15.38
2023-02-22T10:06:17.709Z,15.27
2023-02-22T10:08:45.321Z,15.85
2023-02-22T10:11:25.673Z,15.88
2023-02-22T10:14:29.842Z,15.30
2023-02-22T10:17:15.718Z,16.44
2023-02-22T10:20:02.013Z,14.43
2023-02-22T10:22:53.486Z,15.25
2023-02-22T10:25:27.492Z,16.25
2023-02-22T10:28:06.288Z,16.42
2023-02-22T10:30:49.307Z,15.48
2023-02-22T10:33:22.264Z,15.14
2023-02-22T10:35:52.670Z,15.82
2023-02-22T10:38:24.391Z,15.52
2023-02-22T10:40:57.950Z,15.67
2023-02-22T10:43:25.765Z,15.85
2023-02-22T10:46:02.938Z,15.44
2023-02-22T10:48:32.140Z,14.67
2023-02-22T10:51:02.113Z,14.95
2023-02-22T10:53:30.029Z,15.34
2023-02-22T10:56:22.493Z,14.75
2023-02-22T10:58:57.768Z,15.44
2023-02-22T11:01:37.877Z,15.02
2023-02-22T11:04:18.287Z,15.99
2023-02-22T11:06:48.358Z,15.97
2023-02-22T11:09:22.614Z,16.51
2023-02-22T11:11:53.701Z,16.67
2023-02-22T11:14:30.990Z,16.63
2023-02-22T11:16:59.487Z,16.52
2023-02-22T11:19:29.018Z,15.99
2023-02-22T11:21:59.468Z,16.32
2023-02-22T11:24:30.438Z,15.91
2023-02-22T11:27:05.937Z,15.85
2023-02-22T11:29:37.582Z,15.37
2023-02-22T11:32:22.514Z,15.21
2023-02-22T11:35:03.478Z,14.95
2023-02-22T11:37:34.780Z,14.93
2023-02-22T11:40:22.137Z,14.70
2023-02-22T11:42:57.222Z,15.02
2023-02-22T11:45:25.806Z,15.07
2023-02-22T11:48:01.439Z,14.87
2023-02-22T11:50:51.523Z,15.07
2023-02-22T11:53:34.562Z,14.91
2023-02-22T11:56:36.767Z,14.81
2023-02-22T11:59:26.826Z,14.68
2023-02-22T12:02:18.542Z,14.54
2023-02-22T12:05:08.141Z,14.25
2023-02-22T12:07:59.031Z,14.43
2023-02-22T12:10:38.785Z,14.40
2023-02-22T12:13:05.189Z,14.48
2023-02-22T12:15:51.428Z,14.56
2023-02-22T12:18:35.574Z,14.39
2023-02-22T12:21:08.530Z,14.34
2023-02-22T12:23:50.844Z,14.22
2023-02-22T12:26:39.641Z,14.02
2023-02-22T12:29:26.055Z,13.96
2023-02-22T12:32:00.825Z,14.09
2023-02-22T12:34:52.325Z,14.03
2023-02-22T12:37:34.970Z,14.01
2023-02-22T12:40:14.769Z,14.22
2023-02-22T12:42:55.791Z,14.31
2023-02-22T12:45:37.185Z,14.37
2023-02-22T12:48:26.309Z,14.58
2023-02-22T12:51:02.232Z,14.68
2023-02-22T12:53:35.380Z,14.83
2023-02-22T12:56:20.138Z,15.01
2023-02-22T12:58:56.938Z,15.07
2023-02-22T13:01:30.242Z,14.68
2023-02-22T13:03:57.019Z,14.76
2023-02-22T13:06:45.193Z,14.75
2023-02-22T13:09:57.887Z,14.44
2023-02-22T13:12:57.735Z,14.55
2023-02-22T13:15:24.357Z,14.48
2023-02-22T13:18:29.806Z,14.51
2023-02-22T13:21:16.597Z,14.57
2023-02-22T13:24:05.331Z,14.65
2023-02-22T13:26:43.865Z,14.69
2023-02-22T13:29:16.490Z,14.63
2023-02-22T13:32:04.654Z,14.69
2023-02-22T13:34:34.103Z,14.79
2023-02-22T13:37:37.731Z,14.76
2023-02-22T13:40:27.420Z,14.62
2023-02-22T13:43:14.645Z,14.50
2023-02-22T13:46:00.255Z,14.30
2023-02-22T13:48:56.406Z,14.29
2023-02-22T13:51:52.857Z,14.12
2023-02-22T13:54:40.431Z,13.96
2023-02-22T13:57:22.148Z,13.58
2023-02-22T13:59:49.285Z,13.77
2023-02-22T14:02:58.389Z,13.92
2023-02-22T14:05:40.945Z,13.91
2023-02-22T14:08:08.817Z,13.77
2023-02-22T14:10:57.719Z,13.73
2023-02-22T14:13:29.303Z,13.78
2023-02-22T14:15:59.976Z,13.79
2023-02-22T14:18:28.782Z,13.87
2023-02-22T14:21:16.892Z,13.91
2023-02-22T14:23:45.578Z,13.68
2023-02-22T14:26:33.910Z,13.66
2023-02-22T14:29:10.107Z,13.74
2023-02-22T14:31:50.099Z,13.84
2023-02-22T14:34:19.613Z,13.71
2023-02-22T14:37:12.347Z,13.73
2023-02-22T14:39:52.483Z,13.66
2023-02-22T14:42:28.291Z,13.64
2023-02-22T14:45:05.617Z,13.70
2023-02-22T14:47:49.491Z,13.66
2023-02-22T14:50:29.105Z,13.69
2023-02-22T14:53:18.623Z,13.80
2023-02-22T14:55:56.640Z,13.83
2023-02-22T14:58:29.407Z,13.67
2023-02-22T15:00:57.165Z,13.71
2023-02-22T15:03:23.972Z,13.72
2023-02-22T15:05:50.716Z,13.66
2023-02-22T15:08:18.923Z,13.66
2023-02-22T15:10:48.149Z,13.67
2023-02-22T15:13:18.901Z,13.61
2023-02-22T15:15:54.739Z,13.59
2023-02-22T15:18:27.203Z,13.64
2023-02-22T15:20:58.190Z,13.71
2023-02-22T15:23:30.329Z,13.70
2023-02-22T15:25:58.054Z,13.62
2023-02-22T15:28:29.067Z,13.59
2023-02-22T15:31:34.151Z,13.55
2023-02-22T15:34:30.701Z,13.56
2023-02-22T15:37:18.630Z,13.54
2023-02-22T15:39:45.211Z,13.43
2023-02-22T15:42:21.020Z,13.40
2023-02-22T15:44:49.780Z,13.35
2023-02-22T15:47:20.617Z,13.39
2023-02-22T15:50:25.646Z,13.45
2023-02-22T15:53:01.748Z,13.39
2023-02-22T15:55:37.610Z,13.38
2023-02-22T15:58:16.271Z,13.43
2023-02-22T16:01:07.145Z,13.44
2023-02-22T16:03:47.514Z,13.44
2023-02-22T16:06:28.640Z,13.47
2023-02-22T16:08:58.759Z,13.48
2023-02-22T16:11:32.957Z,13.47
2023-02-22T16:14:23.360Z,13.36
2023-02-22T16:16:50.109Z,13.30
2023-02-22T16:19:42.020Z,13.22
2023-02-22T16:22:23.597Z,13.15
2023-02-22T16:24:52.491Z,12.98
2023-02-22T16:27:21.002Z,12.96
2023-02-22T16:30:25.517Z,12.90
2023-02-22T16:32:55.384Z,12.85
2023-02-22T16:35:28.579Z,12.75
2023-02-22T16:38:16.895Z,12.73
2023-02-22T16:41:04.946Z,12.63
2023-02-22T16:43:35.314Z,12.55
2023-02-22T16:46:03.745Z,12.48
2023-02-22T16:48:38.264Z,12.39
2023-02-22T16:51:15.808Z,12.33
2023-02-22T16:53:42.807Z,12.25
2023-02-22T16:56:11.816Z,12.16
2023-02-22T16:58:40.571Z,12.08
2023-02-22T17:01:07.729Z,12.14
2023-02-22T17:03:34.391Z,12.08
2023-02-22T17:06:01.256Z,11.95
2023-02-22T17:08:27.880Z,11.92
2023-02-22T17:10:56.983Z,11.90
2023-02-22T17:13:27.272Z,11.84
2023-02-22T17:15:55.040Z,11.79
2023-02-22T17:18:23.557Z,11.70
2023-02-22T17:20:51.636Z,11.64
2023-02-22T17:23:19.232Z,11.58
2023-02-22T17:25:59.252Z,11.46
2023-02-22T17:28:26.608Z,11.47
2023-02-22T17:30:55.169Z,11.40
2023-02-22T17:33:27.278Z,11.40
2023-02-22T17:35:57.831Z,11.35
2023-02-22T17:38:29.098Z,11.31
2023-02-22T17:40:56.826Z,11.25
2023-02-22T17:43:25.017Z,11.14
2023-02-22T17:45:51.814Z,11.09
2023-02-22T17:48:18.604Z,11.07
2023-02-22T17:50:46.789Z,10.91
2023-02-22T17:53:13.888Z,10.95
2023-02-22T17:55:42.785Z,10.93
2023-02-22T17:58:14.542Z,10.86
2023-02-22T18:00:45.864Z,10.80
2023-02-22T18:03:16.206Z,10.72
2023-02-22T18:05:46.317Z,10.78
2023-02-22T18:08:14.203Z,10.79
2023-02-22T18:10:42.462Z,10.80
2023-02-22T18:13:09.824Z,10.90
2023-02-22T18:15:40.174Z,10.95
2023-02-22T18:18:06.843Z,10.93
2023-02-22T18:20:39.868Z,10.91
2023-02-22T18:23:08.153Z,10.86
2023-02-22T18:25:36.650Z,10.77
2023-02-22T18:28:06.331Z,10.74
2023-02-22T18:30:37.910Z,10.69
2023-02-22T18:33:04.722Z,10.67
2023-02-22T18:35:31.700Z,10.76
2023-02-22T18:37:58.355Z,10.76
2023-02-22T18:40:24.989Z,10.80
2023-02-22T18:42:51.588Z,10.83
2023-02-22T18:45:18.275Z,10.93
2023-02-22T18:47:45.597Z,10.95
2023-02-22T18:50:13.337Z,11.00
2023-02-22T18:52:46.078Z,11.03
2023-02-22T18:55:19.693Z,10.97
2023-02-22T18:57:47.488Z,11.07
2023-02-22T19:00:17.732Z,11.01
2023-02-22T19:02:44.435Z,11.02
2023-02-22T19:05:13.079Z,10.99
2023-02-22T19:07:39.923Z,10.98
2023-02-22T19:10:08.712Z,11.09
2023-02-22T19:12:36.141Z,11.10
2023-02-22T19:15:02.975Z,11.12
2023-02-22T19:17:31.159Z,11.15
2023-02-22T19:19:57.800Z,11.16
2023-02-22T19:22:26.372Z,11.17
2023-02-22T19:24:57.321Z,11.26
2023-02-22T19:27:24.901Z,11.20
2023-02-22T19:29:51.890Z,11.31
2023-02-22T19:32:18.918Z,11.31
2023-02-22T19:34:45.851Z,11.24
2023-02-22T19:37:13.185Z,11.28
2023-02-22T19:39:42.464Z,11.23
2023-02-22T19:42:10.305Z,11.18
2023-02-22T19:44:37.440Z,11.25
2023-02-22T19:47:09.033Z,11.21
2023-02-22T19:49:37.498Z,11.23
2023-02-22T19:52:06.593Z,11.20
2023-02-22T19:54:33.766Z,11.21
2023-02-22T19:57:00.777Z,11.19
2023-02-22T19:59:28.031Z,11.15
2023-02-22T20:01:56.132Z,11.21
2023-02-22T20:04:23.379Z,11.16
2023-02-22T20:06:54.608Z,11.20
2023-02-22T20:09:23.981Z,11.21
2023-02-22T20:11:53.861Z,11.12
2023-02-22T20:14:23.553Z,11.22
2023-02-22T20:16:51.790Z,11.19
2023-02-22T20:19:18.590Z,11.09
2023-02-22T20:21:45.274Z,11.12
2023-02-22T20:24:15.331Z,11.13
2023-02-22T20:26:43.327Z,11.14
2023-02-22T20:29:13.794Z,11.08
2023-02-22T20:31:42.117Z,11.07
2023-02-22T20:34:12.029Z,11.04
2023-02-22T20:36:41.403Z,10.94
2023-02-22T20:39:13.473Z,10.90
2023-02-22T20:41:42.681Z,10.98
2023-02-22T20:44:13.544Z,10.93
2023-02-22T20:46:40.242Z,10.96
2023-02-22T20:49:13.814Z,10.93
2023-02-22T20:51:41.860Z,10.96
2023-02-22T20:54:12.112Z,10.93
2023-02-22T20:56:41.925Z,10.95
2023-02-22T20:59:14.452Z,10.90
2023-02-22T21:01:42.250Z,10.90
2023-02-22T21:04:10.355Z,10.89
2023-02-22T21:06:39.017Z,10.88
2023-02-22T21:09:08.788Z,10.86
2023-02-22T21:11:35.677Z,10.89
2023-02-22T21:14:03.226Z,10.91
2023-02-22T21:16:33.381Z,10.93
2023-02-22T21:19:02.722Z,10.93
2023-02-22T21:21:30.879Z,10.93
2023-02-22T21:24:01.977Z,10.88
2023-02-22T21:26:31.217Z,10.86
2023-02-22T21:29:00.520Z,10.81
2023-02-22T21:31:28.017Z,10.76
2023-02-22T21:33:57.345Z,10.64
2023-02-22T21:36:27.217Z,10.62
2023-02-22T21:38:58.713Z,10.54
2023-02-22T21:41:30.229Z,10.51
2023-02-22T21:43:58.438Z,10.41
2023-02-22T21:46:27.303Z,10.34
2023-02-22T21:48:53.952Z,10.28
2023-02-22T21:51:25.842Z,10.23
2023-02-22T21:53:54.698Z,10.21
2023-02-22T21:56:29.089Z,10.23
2023-02-22T21:59:03.256Z,10.19
2023-02-22T22:01:33.878Z,10.23
2023-02-22T22:04:01.948Z,10.21
2023-02-22T22:06:30.388Z,10.19
2023-02-22T22:08:59.829Z,10.18
2023-02-22T22:11:26.723Z,10.08
2023-02-22T22:13:57.564Z,10.16
2023-02-22T22:16:27.146Z,10.12
2023-02-22T22:18:54.808Z,10.13
2023-02-22T22:21:23.985Z,10.14
2023-02-22T22:23:54.340Z,10.07
2023-02-22T22:26:24.532Z,9.94
2023-02-22T22:28:57.735Z,9.91
2023-02-22T22:31:26.118Z,9.86
2023-02-22T22:33:54.163Z,9.78
2023-02-22T22:36:22.399Z,9.70
2023-02-22T22:38:49.322Z,9.61
2023-02-22T22:41:18.897Z,9.59
2023-02-22T22:43:46.192Z,9.48
2023-02-22T22:46:15.381Z,9.45
2023-02-22T22:48:43.166Z,9.44
2023-02-22T22:51:13.140Z,9.43
2023-02-22T22:53:42.772Z,9.47
2023-02-22T22:56:15.837Z,9.46
2023-02-22T22:58:46.866Z,9.54
2023-02-22T23:01:19.619Z,9.55
2023-02-22T23:03:56.701Z,9.63
2023-02-22T23:06:26.533Z,9.53
2023-02-22T23:09:04.007Z,9.52
2023-02-22T23:11:33.717Z,9.54
2023-02-22T23:14:03.560Z,9.54
2023-02-22T23:16:32.287Z,9.61
2023-02-22T23:18:59.056Z,9.61
2023-02-22T23:21:26.012Z,9.67
2023-02-22T23:23:58.278Z,9.62
2023-02-22T23:26:27.144Z,9.65
2023-02-22T23:28:56.296Z,9.64
2023-02-22T23:31:23.671Z,9.63
2023-02-22T23:33:50.641Z,9.64
2023-02-22T23:36:18.561Z,9.72
2023-02-22T23:38:46.030Z,9.71
2023-02-22T23:41:18.677Z,9.71
2023-02-22T23:43:45.857Z,9.65
2023-02-22T23:46:18.412Z,9.64
2023-02-22T23:48:50.786Z,9.66
2023-02-22T23:51:20.768Z,9.64
2023-02-22T23:53:49.137Z,9.64
2023-02-22T23:56:20.975Z,9.65
2023-02-22T23:58:50.446Z,9.70
